Time;durP1;ratioP1;P1;durP2;ratioP2;P2;SDS_P1;SDS_P2;PMS_P1;PMS_P2;Temp;Humidity;BMP_temperature;BMP_pressure;BME280_temperature;BME280_humidity;BME280_pressure;Samples;Min_cycle;Max_cycle;Signal;HPM_P1;HPM_P2
2022/01/07 00:01:56;;;;;;;16.80;6.90;;;;;;;-0.02;84.71;101002.94;6190576;23;20053;-89
2022/01/07 00:05:00;;;;;;;8.98;5.60;;;;;;;0.23;84.15;101004.59;6209245;23;20043;-89
2022/01/07 00:08:03;;;;;;;9.93;6.00;;;;;;;0.26;84.01;101003.75;6209197;23;20343;-89
2022/01/07 00:11:07;;;;;;;9.30;5.63;;;;;;;-0.02;84.91;101002.94;6208038;23;20055;-89
2022/01/07 00:14:11;;;;;;;9.13;6.22;;;;;;;-0.14;85.71;101002.94;6191910;23;20028;-90
2022/01/07 00:17:14;;;;;;;7.80;5.28;;;;;;;0.10;84.78;101002.91;6210409;23;20027;-89
2022/01/07 00:20:18;;;;;;;10.23;6.03;;;;;;;-0.02;84.61;100997.78;6209056;23;20028;-89
2022/01/07 00:23:22;;;;;;;9.48;5.03;;;;;;;-0.11;84.65;101002.94;6208888;23;20078;-89
2022/01/07 00:26:26;;;;;;;;;;;;;;;-0.01;85.15;100994.34;6209436;23;20039;-89
2022/01/07 00:29:30;;;;;;;;;;;;;;;0.12;84.64;100988.31;6209976;23;19957;-89
2022/01/07 00:32:33;;;;;;;8.07;5.07;;;;;;;0.34;84.42;100983.13;6208750;23;19962;-89
2022/01/07 00:35:37;;;;;;;9.80;5.18;;;;;;;0.41;83.83;100983.09;6210333;23;20094;-89
2022/01/07 00:38:40;;;;;;;;;;;;;;;0.53;83.46;100982.22;6207901;23;20035;-89
2022/01/07 00:41:44;;;;;;;7.60;4.55;;;;;;;0.64;82.91;100977.88;6208365;23;19947;-89
2022/01/07 00:44:47;;;;;;;8.73;4.95;;;;;;;0.59;82.83;100973.63;6208742;23;20071;-89
2022/01/07 00:47:52;;;;;;;10.57;6.07;;;;;;;0.61;82.72;100971.91;6209069;23;20023;-88
2022/01/07 00:50:56;;;;;;;9.50;5.90;;;;;;;0.60;82.57;100962.44;6209328;23;20027;-88
2022/01/07 00:54:00;;;;;;;9.73;5.95;;;;;;;0.50;82.41;100965.94;6208630;23;20344;-88
2022/01/07 00:57:05;;;;;;;12.98;5.38;;;;;;;0.51;82.82;100958.22;6209436;23;20481;-88
2022/01/07 01:00:12;;;;;;;8.82;6.13;;;;;;;0.51;82.51;100953.06;6207856;23;20394;-89
2022/01/07 01:03:15;;;;;;;9.95;6.50;;;;;;;0.49;82.37;100944.50;6207096;23;20022;-88
2022/01/07 01:06:18;;;;;;;8.98;5.88;;;;;;;0.48;82.55;100942.78;6208289;23;20035;-89
2022/01/07 01:09:21;;;;;;;;;;;;;;;0.38;83.10;100935.94;6209157;23;20400;-89
2022/01/07 01:12:25;;;;;;;8.07;5.38;;;;;;;0.33;83.22;100942.84;6208842;23;19973;-88
2022/01/07 01:15:29;;;;;;;11.05;7.35;;;;;;;0.27;83.66;100938.56;6209792;23;20023;-89
2022/01/07 01:18:33;;;;;;;10.27;7.13;;;;;;;0.18;83.86;100939.44;6209208;23;20336;-89
2022/01/07 01:21:37;;;;;;;10.15;6.72;;;;;;;0.37;82.88;100923.97;6207873;23;20051;-89
2022/01/07 01:24:41;;;;;;;12.07;7.72;;;;;;;0.34;83.09;100922.25;6207948;23;20023;-89
2022/01/07 01:27:44;;;;;;;10.93;6.63;;;;;;;0.46;82.76;100927.34;6202363;23;20059;-89
2022/01/07 01:30:48;;;;;;;7.22;5.72;;;;;;;0.50;82.65;100917.91;6205127;23;20062;-89
2022/01/07 01:33:51;;;;;;;9.20;5.72;;;;;;;0.47;82.45;100918.75;6209362;23;20024;-89
2022/01/07 01:36:55;;;;;;;9.40;6.03;;;;;;;0.50;82.56;100914.47;6208782;23;20364;-89
2022/01/07 01:39:58;;;;;;;11.15;5.35;;;;;;;0.56;82.22;100905.00;6208828;23;20483;-89
2022/01/07 01:43:03;;;;;;;7.88;4.97;;;;;;;0.57;81.80;100911.84;6208063;23;20464;-89
2022/01/07 01:46:06;;;;;;;8.90;5.25;;;;;;;0.51;81.85;100901.63;6209057;23;20086;-89
2022/01/07 01:49:10;;;;;;;;;;;;;;;0.46;81.86;100904.19;6209244;23;20062;-89
2022/01/07 01:52:13;;;;;;;11.95;4.80;;;;;;;0.49;82.04;100903.34;6209844;23;19914;-89
2022/01/07 01:55:19;;;;;;;9.27;5.60;;;;;;;0.46;82.16;100887.91;6209495;23;20031;-89
2022/01/07 01:58:23;;;;;;;8.65;5.22;;;;;;;0.22;83.01;100888.84;6209450;23;20243;-89
2022/01/07 02:01:26;;;;;;;8.73;4.88;;;;;;;0.29;82.76;100890.56;6208994;23;20123;-89
2022/01/07 02:04:30;;;;;;;7.70;4.72;;;;;;;0.35;82.18;100894.81;6207756;23;20019;-89
2022/01/07 02:07:38;;;;;;;8.77;5.32;;;;;;;0.41;81.63;100889.63;6208517;23;20039;-89
2022/01/07 02:10:42;;;;;;;9.80;5.47;;;;;;;0.39;81.89;100891.38;6208947;23;20024;-89
2022/01/07 02:13:48;;;;;;;10.13;4.70;;;;;;;0.36;82.18;100886.25;6209192;23;20154;-89
2022/01/07 02:16:51;;;;;;;11.77;5.13;;;;;;;0.44;81.89;100882.75;6210667;23;20028;-89
2022/01/07 02:19:56;;;;;;;;;;;;;;;0.46;81.78;100877.63;6210992;23;20090;-89
2022/01/07 02:23:00;;;;;;;7.10;4.28;;;;;;;0.39;81.91;100870.81;6192060;23;19954;-90
2022/01/07 02:26:04;;;;;;;7.82;4.30;;;;;;;0.46;82.06;100869.91;6210033;23;20074;-89
2022/01/07 02:29:07;;;;;;;7.85;4.68;;;;;;;0.44;81.77;100864.75;6210398;23;20024;-89
2022/01/07 02:32:11;;;;;;;8.95;4.32;;;;;;;0.43;81.69;100857.06;6209742;23;20024;-89
2022/01/07 02:35:16;;;;;;;10.05;5.32;;;;;;;0.46;81.46;100857.03;6209579;23;20398;-89
2022/01/07 02:38:19;;;;;;;9.45;4.35;;;;;;;0.54;81.21;100834.66;6211090;23;20070;-89
2022/01/07 02:41:23;;;;;;;12.05;4.88;;;;;;;0.40;81.85;100836.47;6210768;23;20060;-89
2022/01/07 02:44:28;;;;;;;7.32;4.10;;;;;;;0.45;81.81;100829.59;6210126;23;20475;-89
2022/01/07 02:47:39;;;;;;;8.02;4.60;;;;;;;0.45;81.67;100830.47;6209484;23;20147;-89
2022/01/07 02:50:43;;;;;;;8.63;5.00;;;;;;;0.36;81.84;100824.50;6191481;23;20483;-89
2022/01/07 02:53:47;;;;;;;;;;;;;;;0.43;81.90;100821.03;6210407;23;20023;-89
2022/01/07 02:56:51;;;;;;;8.40;4.45;;;;;;;0.38;81.80;100808.22;6209426;23;19926;-90
2022/01/07 02:59:54;;;;;;;8.23;3.95;;;;;;;0.38;81.81;100818.50;6209971;23;20023;-89
2022/01/07 03:02:58;;;;;;;;;;;;;;;0.41;81.93;100812.47;6211292;23;20399;-89
2022/01/07 03:06:01;;;;;;;8.90;4.18;;;;;;;0.45;81.37;100801.31;6210004;23;19934;-90
2022/01/07 03:09:05;;;;;;;10.32;4.00;;;;;;;0.46;81.70;100800.44;6191564;23;20019;-90
2022/01/07 03:12:09;;;;;;;8.77;3.38;;;;;;;0.57;81.44;100792.63;6209459;23;20078;-89
2022/01/07 03:15:14;;;;;;;10.60;5.05;;;;;;;0.53;81.70;100786.66;6209012;23;20096;-90
2022/01/07 03:18:17;;;;;;;10.85;4.80;;;;;;;0.59;81.23;100786.63;6208147;23;20410;-89
2022/01/07 03:21:21;;;;;;;8.27;4.00;;;;;;;0.61;81.51;100787.47;6209414;23;20074;-89
2022/01/07 03:24:24;;;;;;;6.25;3.67;;;;;;;0.54;81.35;100788.34;6210445;23;20027;-89
2022/01/07 03:27:27;;;;;;;8.00;4.05;;;;;;;0.58;81.23;100777.19;6208138;23;20090;-89
2022/01/07 03:30:31;;;;;;;8.82;4.93;;;;;;;0.62;81.18;100770.31;6190217;23;20395;-89
2022/01/07 03:33:35;;;;;;;7.60;4.22;;;;;;;0.67;81.47;100773.69;6209427;23;20027;-89
2022/01/07 03:36:39;;;;;;;5.97;3.78;;;;;;;0.60;81.41;100765.16;6209890;23;20023;-89
2022/01/07 03:39:43;;;;;;;6.45;4.10;;;;;;;0.57;81.76;100760.03;6209755;23;20024;-90
2022/01/07 03:42:47;;;;;;;;;;;;;;;0.61;81.23;100758.31;6210766;23;20023;-89
2022/01/07 03:45:50;;;;;;;8.50;4.32;;;;;;;0.63;81.50;100757.41;6209802;23;20407;-89
2022/01/07 03:48:54;;;;;;;9.25;4.85;;;;;;;0.61;81.62;100748.88;6208928;23;20336;-90
2022/01/07 03:51:57;;;;;;;6.38;4.03;;;;;;;0.63;81.68;100738.56;6209474;23;20414;-89
2022/01/07 03:55:03;;;;;;;7.60;4.15;;;;;;;0.58;81.80;100738.59;6209483;23;20026;-89
2022/01/07 03:58:07;;;;;;;8.13;4.05;;;;;;;0.60;82.09;100739.44;6178551;23;20028;-89
2022/01/07 04:01:11;;;;;;;7.88;3.97;;;;;;;0.68;81.95;100729.94;6158820;23;20024;-89
2022/01/07 04:04:14;;;;;;;6.72;3.70;;;;;;;0.68;81.54;100735.09;6178352;23;20077;-89
2022/01/07 04:07:17;;;;;;;6.38;3.92;;;;;;;0.67;81.70;100729.94;6179286;23;20027;-90
2022/01/07 04:10:21;;;;;;;;;;;;;;;0.65;81.77;100736.84;6179486;23;20463;-89
2022/01/07 04:13:24;;;;;;;9.48;3.88;;;;;;;0.66;82.08;100731.66;6178183;23;19962;-89
2022/01/07 04:16:28;;;;;;;8.18;4.00;;;;;;;0.67;82.12;100724.78;6179526;23;20028;-89
2022/01/07 04:19:31;;;;;;;9.05;4.45;;;;;;;0.69;81.94;100721.34;6179893;23;20024;-89
2022/01/07 04:22:34;;;;;;;;;;;;;;;0.69;82.00;100715.34;6179458;23;20024;-89
2022/01/07 04:25:38;;;;;;;8.90;3.97;;;;;;;0.68;82.48;100709.34;6179301;23;19970;-89
2022/01/07 04:28:41;;;;;;;;;;;;;;;0.66;82.49;100711.06;6178510;23;20031;-89
2022/01/07 04:31:45;;;;;;;7.75;3.45;;;;;;;0.69;82.53;100708.47;6177748;23;19914;-89
2022/01/07 04:34:48;;;;;;;;;;;;;;;0.81;82.11;100704.94;6180234;23;20104;-89
2022/01/07 04:37:52;;;;;;;8.52;4.30;;;;;;;0.79;82.20;100701.50;6179768;23;19915;-89
2022/01/07 04:40:55;;;;;;;4.90;3.20;;;;;;;0.76;82.08;100705.84;6178340;23;20076;-89
2022/01/07 04:43:58;;;;;;;9.68;3.72;;;;;;;0.75;82.47;100707.56;6160622;23;20024;-89
2022/01/07 04:47:02;;;;;;;;;;;;;;;0.84;82.23;100706.63;6178772;23;20039;-90
2022/01/07 04:50:11;;;;;;;11.80;3.73;;;;;;;0.81;82.30;100704.94;6178311;23;19930;-89
2022/01/07 04:53:14;;;;;;;8.38;4.70;;;;;;;0.88;82.31;100705.72;6178612;23;20336;-89
2022/01/07 04:56:18;;;;;;;10.35;5.22;;;;;;;0.81;82.34;100704.94;6192735;23;20081;-89
2022/01/07 04:59:21;;;;;;;;;;;;;;;0.89;82.32;100707.44;6191537;23;20096;-90
2022/01/07 05:02:27;;;;;;;7.63;4.55;;;;;;;0.73;82.76;100703.28;6209559;23;20244;-86
2022/01/07 05:05:32;;;;;;;9.70;5.07;;;;;;;0.79;83.17;100708.38;6208953;23;20082;-91
2022/01/07 05:08:36;;;;;;;6.07;4.10;;;;;;;0.78;83.28;100709.28;6208564;23;20079;-90
2022/01/07 05:11:39;;;;;;;5.85;3.60;;;;;;;0.91;82.94;100700.56;6189728;23;20470;-90
2022/01/07 05:14:42;;;;;;;6.60;3.50;;;;;;;0.97;82.45;100700.50;6209209;23;20081;-90
2022/01/07 05:17:46;;;;;;;8.07;3.97;;;;;;;0.92;83.12;100700.53;6210134;23;20070;-86
2022/01/07 05:20:49;;;;;;;6.82;3.47;;;;;;;0.97;82.95;100708.22;6208912;23;20291;-89
2022/01/07 05:23:53;;;;;;;8.88;3.80;;;;;;;0.94;nan;100697.94;6208395;23;20363;-88
2022/01/07 05:26:56;;;;;;;8.65;3.80;;;;;;;0.99;83.13;100703.03;6208229;23;20067;-87
2022/01/07 05:30:00;;;;;;;11.40;4.38;;;;;;;0.98;83.54;100701.34;6208608;23;20514;-88
2022/01/07 05:33:03;;;;;;;7.47;3.95;;;;;;;1.07;82.54;100702.09;6205404;23;20026;-87
2022/01/07 05:36:07;;;;;;;9.18;6.07;;;;;;;1.09;82.86;100695.22;6209440;23;20615;-88
2022/01/07 05:39:11;;;;;;;13.00;7.18;;;;;;;0.97;83.64;100684.19;6207846;23;20053;-87
2022/01/07 05:42:14;;;;;;;11.90;5.80;;;;;;;1.07;83.79;100681.50;6208266;23;20155;-87
2022/01/07 05:45:18;;;;;;;;;;;;;;;1.04;83.72;100681.53;6208966;23;20078;-86
2022/01/07 05:48:21;;;;;;;11.40;7.03;;;;;;;1.09;83.50;100664.31;6208136;23;19914;-85
2022/01/07 05:51:25;;;;;;;;;;;;;;;1.14;83.58;100661.69;6210464;23;20031;-85
2022/01/07 05:54:28;;;;;;;15.57;7.88;;;;;;;1.07;84.17;100660.91;6210050;23;19999;-86
2022/01/07 05:57:32;;;;;;;30.17;16.23;;;;;;;1.14;83.99;100647.06;6208406;23;20132;-84
2022/01/07 06:01:21;;;;;;;;;;;;;;;;;;;;;
2022/01/07 06:04:57;;;;;;;;;;;;;;;;;;;;;
2022/01/07 06:08:40;;;;;;;14.15;5.93;;;;;;;1.28;83.66;100628.06;6212543;23;19930;-88
2022/01/07 06:12:56;;;;;;;10.00;4.75;;;;;;;1.17;84.55;100618.72;6212442;23;20055;-89
2022/01/07 06:16:09;;;;;;;8.13;4.32;;;;;;;1.10;84.88;100627.38;6206420;23;20086;-88
2022/01/07 06:19:23;;;;;;;7.50;4.35;;;;;;;1.10;85.27;100619.66;6194292;23;20494;-88
2022/01/07 06:23:22;;;;;;;6.75;3.90;;;;;;;1.26;84.50;100620.31;6209034;23;20142;-87
2022/01/07 06:27:14;;;;;;;10.00;4.72;;;;;;;1.21;84.60;100627.25;6208838;23;20108;-87
2022/01/07 06:31:07;;;;;;;15.10;8.73;;;;;;;1.22;84.78;100615.25;6208789;23;20344;-89
2022/01/07 06:34:45;;;;;;;14.93;7.47;;;;;;;1.36;84.74;100618.50;6210836;23;20151;-88
2022/01/07 06:38:18;;;;;;;11.75;7.38;;;;;;;1.43;84.35;100614.94;6192453;23;20030;-88
2022/01/07 06:42:00;;;;;;;15.75;9.23;;;;;;;1.47;84.35;100608.03;6191357;23;20032;-89
2022/01/07 06:53:15;;;;;;;15.43;8.98;;;;;;;1.19;86.03;100610.97;6211175;23;20376;-90
2022/01/07 06:56:32;;;;;;;14.82;8.98;;;;;;;1.41;85.71;100610.72;6194482;23;20075;-88
2022/01/07 07:03:42;;;;;;;14.45;6.88;;;;;;;1.49;85.73;100608.88;6180443;23;20024;-90
2022/01/07 07:06:57;;;;;;;12.15;6.13;;;;;;;1.49;85.36;100603.72;6197057;23;20052;-89
2022/01/07 07:10:21;;;;;;;9.93;4.53;;;;;;;1.54;85.40;100600.22;6179966;23;20502;-91
2022/01/07 07:17:28;;;;;;;14.60;6.60;;;;;;;1.57;84.97;100584.69;6179546;23;20027;-88
2022/01/07 07:20:43;;;;;;;11.02;5.75;;;;;;;1.65;84.53;100582.00;6181169;23;20489;-90
2022/01/07 07:23:59;;;;;;;10.60;4.95;;;;;;;1.70;84.48;100587.09;6180224;23;20028;-86
2022/01/07 07:27:12;;;;;;;11.52;4.70;;;;;;;1.54;85.53;100589.91;6179834;23;20044;-88
2022/01/07 07:30:33;;;;;;;13.88;5.32;;;;;;;1.51;85.39;100595.09;6180189;23;20027;-87
2022/01/07 07:36:49;;;;;;;11.73;4.97;;;;;;;1.54;85.79;100587.31;6179809;23;20534;-88
2022/01/07 07:39:52;;;;;;;10.57;5.10;;;;;;;1.59;85.47;100593.25;6161796;23;20040;-88
2022/01/07 07:42:56;;;;;;;13.85;5.65;;;;;;;1.72;84.87;100590.50;6179692;23;20032;-88
2022/01/07 07:46:07;;;;;;;8.40;5.32;;;;;;;1.56;85.19;100598.47;6178939;23;20031;-88
2022/01/07 07:49:10;;;;;;;;;;;;;;;1.29;85.87;100594.53;6178867;23;20574;-88
2022/01/07 07:52:15;;;;;;;12.02;4.97;;;;;;;1.37;85.02;100599.56;6178410;23;20332;-88
2022/01/07 07:55:19;;;;;;;13.88;5.20;;;;;;;1.59;85.46;100594.97;6179990;23;20087;-88
2022/01/07 07:58:24;;;;;;;11.38;4.88;;;;;;;1.30;86.47;100598.81;6189904;23;20026;-88
2022/01/07 08:01:28;;;;;;;12.90;5.32;;;;;;;1.42;85.56;100599.53;6209548;23;20027;-88
2022/01/07 08:04:31;;;;;;;20.48;10.02;;;;;;;1.26;86.07;100607.44;6210350;23;20494;-88
2022/01/07 08:07:34;;;;;;;19.17;8.43;;;;;;;1.30;86.23;100608.25;6209335;23;20400;-88
2022/01/07 08:10:45;;;;;;;15.88;6.15;;;;;;;1.52;85.63;100596.78;6209450;23;20054;-88
2022/01/07 08:17:11;;;;;;;12.73;5.88;;;;;;;1.48;86.33;100586.56;6208249;23;20032;-88
2022/01/07 08:20:14;;;;;;;13.70;5.57;;;;;;;1.65;85.78;100592.31;6209276;23;20064;-88
2022/01/07 08:23:19;;;;;;;10.13;4.43;;;;;;;1.72;85.35;100583.59;6209005;23;20099;-88
2022/01/07 08:26:23;;;;;;;8.75;4.50;;;;;;;1.80;85.03;100581.78;6190413;23;20031;-88
2022/01/07 08:29:31;;;;;;;12.57;4.50;;;;;;;1.77;85.09;100574.09;6190163;23;20027;-88
2022/01/07 08:35:56;;;;;;;11.63;4.53;;;;;;;1.59;85.97;100572.63;6209393;23;20027;-88
2022/01/07 08:39:04;;;;;;;16.27;5.65;;;;;;;1.74;85.66;100568.97;6209296;23;20082;-88
2022/01/07 08:42:08;;;;;;;11.10;5.75;;;;;;;1.84;85.36;100561.94;6209209;23;20078;-88
2022/01/07 08:45:11;;;;;;;15.90;6.47;;;;;;;1.73;83.60;100566.44;6207993;23;20019;-88
2022/01/07 08:48:15;;;;;;;29.38;12.55;;;;;;;1.84;84.61;100567.09;6189569;23;20356;-88
2022/01/07 08:51:19;;;;;;;;;;;;;;;1.69;83.36;100563.06;6189858;23;20024;-88
2022/01/07 08:54:22;;;;;;;24.38;10.75;;;;;;;1.82;83.39;100554.25;6192624;23;19915;-88
2022/01/07 08:57:25;;;;;;;67.65;28.55;;;;;;;1.74;84.54;100558.66;6211846;23;20082;-88
2022/01/07 09:00:29;;;;;;;;;;;;;;;1.78;82.56;100562.88;6212461;23;20542;-88
2022/01/07 09:03:33;;;;;;;10.00;3.90;;;;;;;1.79;82.95;100558.63;6208670;23;19930;-88
2022/01/07 09:06:36;;;;;;;27.75;13.27;;;;;;;1.80;83.05;100560.31;6207693;23;20051;-88
2022/01/07 09:09:40;;;;;;;13.90;6.85;;;;;;;1.89;82.55;100559.31;6207984;23;20055;-88
2022/01/07 09:12:44;;;;;;;14.65;7.45;;;;;;;1.92;82.76;100564.44;6211445;23;20044;-88
2022/01/07 09:15:48;;;;;;;10.13;4.53;;;;;;;1.94;81.62;100563.50;6203991;23;20055;-88
2022/01/07 09:18:52;;;;;;;;;;;;;;;2.12;81.00;100551.19;6208110;23;20031;-87
2022/01/07 09:21:56;;;;;;;13.32;4.80;;;;;;;2.02;81.95;100566.81;6207181;23;19950;-87
2022/01/07 09:25:00;;;;;;;12.43;5.60;;;;;;;2.07;82.28;100554.72;6209137;23;20022;-87
2022/01/07 09:28:05;;;;;;;5.57;3.00;;;;;;;2.13;81.24;100543.41;6212510;23;20075;-87
2022/01/07 09:31:11;;;;;;;13.02;5.75;;;;;;;2.15;81.75;100551.16;6210859;23;20040;-87
2022/01/07 09:34:14;;;;;;;11.20;4.57;;;;;;;2.29;82.23;100544.00;6211499;23;20023;-87
2022/01/07 09:37:18;;;;;;;11.90;4.68;;;;;;;2.23;85.10;100555.28;6210418;23;20031;-87
2022/01/07 09:40:22;;;;;;;11.80;6.15;;;;;;;2.24;82.68;100551.84;6210947;23;20027;-87
2022/01/07 09:43:25;;;;;;;9.98;4.47;;;;;;;2.33;84.81;100556.84;6209444;23;20074;-87
2022/01/07 09:46:29;;;;;;;10.82;4.28;;;;;;;2.49;85.30;100546.19;6210413;23;20352;-87
2022/01/07 09:49:35;;;;;;;9.52;4.00;;;;;;;2.63;84.33;100535.63;6211050;23;20027;-87
2022/01/07 09:52:39;;;;;;;10.30;4.25;;;;;;;2.75;84.17;100543.16;6212595;23;20100;-86
2022/01/07 09:55:43;;;;;;;8.15;3.42;;;;;;;2.58;84.92;100532.28;6209416;23;20031;-84
2022/01/07 09:58:47;;;;;;;7.88;3.38;;;;;;;2.67;85.07;100535.53;6209938;23;20123;-87
2022/01/07 10:02:05;;;;;;;8.32;3.25;;;;;;;2.61;85.37;100540.81;6210281;23;20474;-86
2022/01/07 10:05:17;;;;;;;6.15;2.83;;;;;;;2.63;85.39;100540.81;6210390;23;20344;-86
2022/01/07 10:08:25;;;;;;;10.80;3.05;;;;;;;2.63;85.57;100535.63;6210753;23;20071;-87
2022/01/07 10:11:29;;;;;;;9.68;3.75;;;;;;;2.71;85.22;100533.75;6209423;23;20074;-87
2022/01/07 10:14:34;;;;;;;6.88;3.10;;;;;;;2.82;84.60;100530.97;6211149;23;20027;-87
2022/01/07 10:17:38;;;;;;;10.23;3.03;;;;;;;2.91;84.71;100530.78;6211304;23;20413;-87
2022/01/07 10:20:44;;;;;;;6.70;3.08;;;;;;;3.00;84.77;100523.69;6207801;23;20027;-87
2022/01/07 10:23:49;;;;;;;7.43;2.58;;;;;;;2.96;84.73;100519.44;6209913;23;20051;-86
2022/01/07 10:27:12;;;;;;;6.25;2.65;;;;;;;2.78;86.25;100519.84;6191061;23;20051;-86
2022/01/07 10:30:19;;;;;;;4.80;2.40;;;;;;;2.86;84.72;100525.69;6210364;23;20058;-87
2022/01/07 10:33:39;;;;;;;7.78;4.40;;;;;;;2.63;86.35;100518.41;6210724;23;20024;-87
2022/01/07 10:36:43;;;;;;;7.65;4.05;;;;;;;2.79;85.71;100506.03;6208439;23;20027;-87
2022/01/07 10:39:49;;;;;;;6.80;3.28;;;;;;;2.94;85.42;100502.31;6206484;23;20023;-89
2022/01/07 10:43:15;;;;;;;7.85;4.32;;;;;;;2.95;85.08;100504.00;6209868;23;20035;-88
2022/01/07 10:46:27;;;;;;;13.10;6.45;;;;;;;2.88;85.60;100492.94;6210685;23;20099;-93
2022/01/07 10:49:31;;;;;;;10.07;5.60;;;;;;;3.07;85.15;100482.22;6209019;23;20023;-88
2022/01/07 10:52:42;;;;;;;14.85;9.95;;;;;;;3.17;85.17;100479.38;6188987;23;20027;-87
2022/01/07 10:56:23;;;;;;;9.10;5.32;;;;;;;3.35;83.91;100477.25;6190822;23;20036;-87
2022/01/07 10:59:27;;;;;;;9.73;5.43;;;;;;;3.40;84.42;100470.25;6209413;23;20356;-87
2022/01/07 11:02:34;;;;;;;9.85;4.50;;;;;;;3.19;86.14;100469.88;6208932;23;20508;-88
2022/01/07 11:05:38;;;;;;;13.88;9.07;;;;;;;3.08;86.11;100465.81;6209363;23;20147;-88
2022/01/07 11:08:41;;;;;;;13.32;6.65;;;;;;;2.84;86.50;100468.06;6174773;23;20071;-88
2022/01/07 11:12:02;;;;;;;10.05;6.20;;;;;;;2.68;86.87;100471.84;6209319;23;20027;-89
2022/01/07 11:15:10;;;;;;;5.22;3.05;;;;;;;2.67;87.46;100475.31;6209987;23;20387;-88
2022/01/07 11:18:13;;;;;;;10.00;4.93;;;;;;;2.93;85.77;100464.44;6211015;23;20104;-89
2022/01/07 11:21:19;;;;;;;5.97;4.57;;;;;;;3.06;85.54;100452.09;6193822;23;20066;-89
2022/01/07 11:24:45;;;;;;;12.38;8.10;;;;;;;2.81;86.17;100460.41;6213362;23;20100;-88
2022/01/07 11:27:52;;;;;;;8.57;4.20;;;;;;;2.83;86.56;100456.03;6212391;23;20024;-87
2022/01/07 11:31:04;;;;;;;6.85;3.50;;;;;;;3.10;85.44;100441.66;6212895;23;20356;-88
2022/01/07 11:34:20;;;;;;;5.50;2.55;;;;;;;3.00;86.30;100446.19;6212205;23;20023;-89
2022/01/07 11:37:39;;;;;;;5.63;2.10;;;;;;;2.99;87.14;100443.63;6213367;23;20103;-89
2022/01/07 11:40:47;;;;;;;5.22;2.00;;;;;;;3.25;86.23;100430.09;6211681;23;20078;-88
2022/01/07 11:43:52;;;;;;;4.88;2.15;;;;;;;3.31;86.53;100426.53;6212645;23;20055;-88
2022/01/07 11:47:19;;;;;;;5.57;2.85;;;;;;;3.44;85.68;100435.69;6212380;23;20026;-89
2022/01/07 11:50:23;;;;;;;4.88;2.38;;;;;;;3.39;84.01;100435.81;6210724;23;20099;-84
2022/01/07 11:53:35;;;;;;;6.40;3.42;;;;;;;3.42;85.52;100433.16;6207765;23;20498;-84
2022/01/07 11:56:40;;;;;;;4.05;1.67;;;;;;;3.39;80.58;100428.06;6208518;23;20035;-84
2022/01/07 11:59:49;;;;;;;2.78;1.20;;;;;;;3.63;80.38;100423.16;6209348;23;20528;-84
2022/01/07 12:03:02;;;;;;;3.47;1.33;;;;;;;3.66;81.13;100407.56;6207837;23;20079;-84
2022/01/07 12:06:23;;;;;;;6.00;2.38;;;;;;;3.71;81.75;100418.66;6209102;23;20444;-83
2022/01/07 12:09:34;;;;;;;2.13;0.75;;;;;;;3.56;78.79;100425.03;6210899;23;20539;-81
2022/01/07 12:12:40;;;;;;;3.13;0.80;;;;;;;3.66;79.64;100420.50;6210310;23;20035;-82
2022/01/07 12:15:54;;;;;;;4.20;1.77;;;;;;;3.86;81.81;100420.84;6209855;23;20111;-82
2022/01/07 12:19:19;;;;;;;4.22;2.00;;;;;;;3.42;85.31;100432.31;6207804;23;20023;-79
2022/01/07 12:22:22;;;;;;;8.70;3.17;;;;;;;3.59;85.26;100437.06;6208593;23;20525;-83
2022/01/07 12:25:26;;;;;;;;;;;;;;;3.49;81.57;100421.78;6207792;23;20023;-83
2022/01/07 12:28:35;;;;;;;;;;;;;;;3.43;78.93;100427.09;6209597;23;20248;-83
2022/01/07 12:31:49;;;;;;;14.52;7.78;;;;;;;3.43;78.22;100432.25;6209042;23;20334;-83
2022/01/07 12:34:53;;;;;;;6.15;3.38;;;;;;;3.36;78.74;100427.28;6206835;23;20043;-83
2022/01/07 12:37:56;;;;;;;4.03;1.58;;;;;;;3.41;78.56;100430.59;6209327;23;20027;-83
2022/01/07 12:41:01;;;;;;;3.53;1.70;;;;;;;3.44;78.05;100436.53;6209045;23;20349;-83
2022/01/07 12:44:13;;;;;;;4.30;1.67;;;;;;;3.46;79.17;100434.75;6209223;23;20062;-82
2022/01/07 12:47:22;;;;;;;5.15;3.50;;;;;;;3.53;79.38;100435.47;6208639;23;20082;-83
2022/01/07 12:50:28;;;;;;;4.45;1.40;;;;;;;3.55;78.97;100422.50;6210075;23;20111;-84
2022/01/07 12:53:33;;;;;;;4.43;2.70;;;;;;;3.61;78.14;100414.59;6191489;23;20028;-84
2022/01/07 12:56:38;;;;;;;4.32;1.85;;;;;;;3.54;79.00;100418.22;6207355;23;20071;-83
2022/01/07 12:59:42;;;;;;;5.20;3.00;;;;;;;3.63;78.97;100429.16;6208168;23;20365;-84
2022/01/07 13:02:57;;;;;;;5.82;1.33;;;;;;;3.70;78.03;100415.22;6207241;23;20463;-84
2022/01/07 13:06:04;;;;;;;5.03;1.85;;;;;;;3.50;78.31;100415.69;6189682;23;20023;-84
2022/01/07 13:09:14;;;;;;;2.13;0.70;;;;;;;3.61;77.76;100393.91;6206891;23;20023;-84
2022/01/07 13:12:22;;;;;;;3.45;0.80;;;;;;;3.80;77.84;100386.50;6209108;23;20679;-84
2022/01/07 13:15:59;;;;;;;2.10;0.93;;;;;;;3.81;78.28;100399.41;6207711;23;20035;-84
2022/01/07 13:19:13;;;;;;;3.92;1.00;;;;;;;3.61;77.60;100401.69;6208804;23;20023;-83
2022/01/07 13:22:18;;;;;;;2.35;0.85;;;;;;;3.51;82.18;100416.56;6208908;23;20478;-85
2022/01/07 13:25:22;;;;;;;3.58;1.50;;;;;;;3.39;80.76;100414.28;6207368;23;20031;-84
2022/01/07 13:33:16;;;;;;;20.60;8.70;;;;;;;3.64;78.44;100406.78;6208555;23;20550;-85
2022/01/07 13:36:21;;;;;;;26.88;11.63;;;;;;;3.71;77.83;100400.56;6189607;23;20026;-84
2022/01/07 13:39:25;;;;;;;13.82;5.70;;;;;;;3.64;77.43;100401.59;6208159;23;20059;-85
2022/01/07 13:42:30;;;;;;;;;;;;;;;3.63;77.54;100399.88;6209321;23;20071;-83
2022/01/07 13:45:33;;;;;;;4.88;1.67;;;;;;;3.68;77.78;100390.28;6195380;23;19911;-81
2022/01/07 13:48:49;;;;;;;6.22;3.22;;;;;;;3.65;78.00;100385.19;6206593;23;20078;-82
2022/01/07 13:51:58;;;;;;;7.30;4.05;;;;;;;3.55;77.48;100376.81;6190037;23;20040;-83
2022/01/07 13:55:01;;;;;;;10.23;6.32;;;;;;;3.53;77.07;100377.75;6209352;23;20028;-82
2022/01/07 13:58:14;;;;;;;6.97;2.53;;;;;;;3.42;76.93;100381.47;6207896;23;20063;-82
2022/01/07 14:01:19;;;;;;;5.07;1.50;;;;;;;3.44;77.23;100382.25;6209453;23;20027;-83
2022/01/07 14:04:47;;;;;;;4.97;1.88;;;;;;;3.50;77.31;100378.66;6209748;23;20458;-82
2022/01/07 14:07:56;;;;;;;21.75;10.65;;;;;;;3.52;78.00;100381.22;6207991;23;20055;-83
2022/01/07 14:11:11;;;;;;;15.13;6.30;;;;;;;3.64;77.34;100386.94;6208111;23;20127;-83
2022/01/07 14:14:19;;;;;;;40.47;16.85;;;;;;;3.55;77.10;100381.16;6209547;23;20052;-82
2022/01/07 14:17:26;;;;;;;44.10;19.83;;;;;;;3.56;77.29;100382.84;6210022;23;20028;-83
2022/01/07 14:20:42;;;;;;;45.25;19.85;;;;;;;3.57;77.28;100384.53;6209484;23;20031;-82
2022/01/07 14:23:46;;;;;;;41.53;19.30;;;;;;;3.52;77.26;100384.66;6211714;23;20071;-83
2022/01/07 14:26:52;;;;;;;22.40;11.32;;;;;;;3.55;77.87;100381.16;6208353;23;20030;-81
2022/01/07 14:29:56;;;;;;;5.35;2.55;;;;;;;3.57;77.76;100374.19;6191792;23;20023;-82
2022/01/07 14:33:00;;;;;;;9.02;3.50;;;;;;;3.57;77.60;100379.34;6209847;23;20101;-81
2022/01/07 14:36:05;;;;;;;7.47;2.88;;;;;;;3.52;77.92;100381.22;6209161;23;20107;-83
2022/01/07 14:39:12;;;;;;;4.00;1.30;;;;;;;3.47;77.92;100384.75;6208817;23;20151;-84
2022/01/07 14:42:29;;;;;;;11.23;4.10;;;;;;;3.45;78.63;100386.56;6208459;23;20023;-83
2022/01/07 14:45:33;;;;;;;4.53;1.98;;;;;;;3.47;78.25;100386.50;6209771;23;20032;-83
2022/01/07 14:48:36;;;;;;;4.88;1.90;;;;;;;3.42;78.25;100386.63;6209253;23;20151;-83
2022/01/07 14:51:40;;;;;;;;;;;;;;;3.45;77.91;100386.56;6211030;23;20449;-83
2022/01/07 14:54:46;;;;;;;7.20;2.70;;;;;;;3.46;78.31;100384.81;6209412;23;20015;-81
2022/01/07 14:57:51;;;;;;;7.65;3.08;;;;;;;3.56;78.15;100386.25;6210851;23;20279;-81
2022/01/07 15:00:58;;;;;;;6.00;1.83;;;;;;;3.54;78.29;100369.09;6191787;23;20027;-80
2022/01/07 15:04:02;;;;;;;4.22;1.60;;;;;;;3.60;78.58;100381.88;6209943;23;20019;-82
2022/01/07 15:07:06;;;;;;;5.07;1.67;;;;;;;3.59;78.01;100377.59;6209174;23;20028;-82
2022/01/07 15:10:11;;;;;;;33.20;16.73;;;;;;;3.63;78.42;100389.53;6208949;23;20079;-82
2022/01/07 15:13:15;;;;;;;37.33;17.90;;;;;;;3.62;78.16;100385.28;6210838;23;20023;-81
2022/01/07 15:16:40;;;;;;;22.30;11.30;;;;;;;3.56;78.79;100385.41;6211269;23;20061;-86
2022/01/07 15:19:43;;;;;;;18.40;9.80;;;;;;;3.66;78.75;100379.97;6209214;23;20026;-84
2022/01/07 15:22:47;;;;;;;11.13;5.75;;;;;;;3.63;78.76;100386.97;6210048;23;20051;-84